<?xml version='1.0' encoding='UTF-8'?>
<gpx xmlns="http://www.topografix.com/GPX/1/1" creator="www.balnam.be" version="1.1" xmlns:xsi="http://www.w3.org/2001/XMLSchema-instance" xsi:schemaLocation="http://www.topografix.com/GPX/1/1 http://www.topografix.com/GPX/1/1/gpx.xsd">
<trk>
<name>lbgro1</name>
<cmt>v</cmt>
<desc>Roclenge-sur-Geer Chemin n°1 Rue du Chesnay / Rue Droit Thier / Sur les Coteaux</desc>
<link href="https://chemins.be/roclengesurgeer/chemin/1"/><trkseg>
<trkpt lat="50.745965" lon="5.603033"><time>2026-05-08T04:47:26Z</time></trkpt>
<trkpt lat="50.746827" lon="5.602738"><time>2026-05-08T04:57:26Z</time></trkpt>
<trkpt lat="50.747912" lon="5.601779"><time>2026-05-08T05:07:26Z</time></trkpt>
<trkpt lat="50.749073" lon="5.600515"><time>2026-05-08T05:17:26Z</time></trkpt>
<trkpt lat="50.750036" lon="5.599342"><time>2026-05-08T05:27:26Z</time></trkpt>
<trkpt lat="50.750507" lon="5.599356"><time>2026-05-08T05:37:26Z</time></trkpt>
</trkseg></trk>
<trk>
<name>lbgro1</name>
<cmt>r</cmt>
<desc>Roclenge-sur-Geer Chemin n°1 Rue du Chesnay / Rue Droit Thier / Sur les Coteaux</desc>
<link href="https://chemins.be/roclengesurgeer/chemin/1"/><trkseg>
<trkpt lat="50.750507" lon="5.599356"><time>2026-05-08T05:37:26Z</time></trkpt>
<trkpt lat="50.751466" lon="5.599442"><time>2026-05-08T05:47:26Z</time></trkpt>
</trkseg></trk>
<trk>
<name>lbgro1</name>
<cmt>s</cmt>
<desc>Roclenge-sur-Geer Chemin n°1 Rue du Chesnay / Rue Droit Thier / Sur les Coteaux</desc>
<link href="https://chemins.be/roclengesurgeer/chemin/1"/><trkseg>
<trkpt lat="50.751466" lon="5.599442"><time>2026-05-08T05:47:26Z</time></trkpt>
<trkpt lat="50.752196" lon="5.599461"><time>2026-05-08T05:57:26Z</time></trkpt>
</trkseg></trk>
<trk>
<name>lbgro1</name>
<cmt>r</cmt>
<desc>Roclenge-sur-Geer Chemin n°1 Rue du Chesnay / Rue Droit Thier / Sur les Coteaux</desc>
<link href="https://chemins.be/roclengesurgeer/chemin/1"/><trkseg>
<trkpt lat="50.752196" lon="5.599461"><time>2026-05-08T05:57:26Z</time></trkpt>
<trkpt lat="50.753019" lon="5.598434"><time>2026-05-08T06:07:26Z</time></trkpt>
<trkpt lat="50.755539" lon="5.596574"><time>2026-05-08T06:17:26Z</time></trkpt>
<trkpt lat="50.755884" lon="5.595988"><time>2026-05-08T06:27:26Z</time></trkpt>
<trkpt lat="50.756906" lon="5.595320"><time>2026-05-08T06:37:26Z</time></trkpt>
<trkpt lat="50.756607" lon="5.592640"><time>2026-05-08T06:47:26Z</time></trkpt>
<trkpt lat="50.757435" lon="5.592225"><time>2026-05-08T06:57:26Z</time></trkpt>
</trkseg></trk>
<trk>
<name>lbgro1</name>
<cmt>s</cmt>
<desc>Roclenge-sur-Geer Chemin n°1 Rue du Chesnay / Rue Droit Thier / Sur les Coteaux</desc>
<link href="https://chemins.be/roclengesurgeer/chemin/1"/><trkseg>
<trkpt lat="50.757435" lon="5.592225"><time>2026-05-08T06:57:26Z</time></trkpt>
<trkpt lat="50.758099" lon="5.591575"><time>2026-05-08T07:07:26Z</time></trkpt>
</trkseg></trk>
<trk>
<name>lbgro1</name>
<cmt>r</cmt>
<desc>Roclenge-sur-Geer Chemin n°1 Rue du Chesnay / Rue Droit Thier / Sur les Coteaux</desc>
<link href="https://chemins.be/roclengesurgeer/chemin/1"/><trkseg>
<trkpt lat="50.758099" lon="5.591575"><time>2026-05-08T07:07:26Z</time></trkpt>
<trkpt lat="50.758981" lon="5.589336"><time>2026-05-08T07:17:26Z</time></trkpt>
</trkseg></trk>
<trk>
<name>lbgro1</name>
<cmt>v</cmt>
<desc>Roclenge-sur-Geer Chemin n°1 Rue du Chesnay / Rue Droit Thier / Sur les Coteaux</desc>
<link href="https://chemins.be/roclengesurgeer/chemin/1"/><trkseg>
<trkpt lat="50.758981" lon="5.589336"><time>2026-05-08T07:17:26Z</time></trkpt>
<trkpt lat="50.759390" lon="5.588779"><time>2026-05-08T07:27:26Z</time></trkpt>
</trkseg></trk>
<trk>
<name>lbgro1</name>
<cmt>r</cmt>
<desc>Roclenge-sur-Geer Chemin n°1 Rue du Chesnay / Rue Droit Thier / Sur les Coteaux</desc>
<link href="https://chemins.be/roclengesurgeer/chemin/1"/><trkseg>
<trkpt lat="50.759390" lon="5.588779"><time>2026-05-08T07:27:26Z</time></trkpt>
<trkpt lat="50.763541" lon="5.582496"><time>2026-05-08T07:37:26Z</time></trkpt>
</trkseg></trk>
<trk>
<name>lbgro1</name>
<cmt>v</cmt>
<desc>Roclenge-sur-Geer Chemin n°1 Rue du Chesnay / Rue Droit Thier / Sur les Coteaux</desc>
<link href="https://chemins.be/roclengesurgeer/chemin/1"/><trkseg>
<trkpt lat="50.763541" lon="5.582496"><time>2026-05-08T07:37:26Z</time></trkpt>
<trkpt lat="50.763808" lon="5.578363"><time>2026-05-08T07:47:26Z</time></trkpt>
<trkpt lat="50.763764" lon="5.578040"><time>2026-05-08T07:57:26Z</time></trkpt>
<trkpt lat="50.763707" lon="5.577752"><time>2026-05-08T08:07:26Z</time></trkpt>
<trkpt lat="50.763638" lon="5.577307"><time>2026-05-08T08:17:26Z</time></trkpt>
<trkpt lat="50.763523" lon="5.575556"><time>2026-05-08T08:27:26Z</time></trkpt>
<trkpt lat="50.763328" lon="5.574124"><time>2026-05-08T08:37:26Z</time></trkpt>
</trkseg></trk>
<trk>
<name>lbgro1</name>
<cmt>d</cmt>
<desc>Roclenge-sur-Geer Chemin n°1 Rue du Chesnay / Rue Droit Thier / Sur les Coteaux</desc>
<link href="https://chemins.be/roclengesurgeer/chemin/1"/><trkseg>
<trkpt lat="50.763328" lon="5.574124"><time>2026-05-08T08:37:26Z</time></trkpt>
<trkpt lat="50.763568" lon="5.571917"><time>2026-05-08T08:47:26Z</time></trkpt>
<trkpt lat="50.764036" lon="5.570143"><time>2026-05-08T08:57:26Z</time></trkpt>
</trkseg>
</trk>
<trk>
<name>lbgro11</name>
<cmt>v</cmt>
<desc>Roclenge-sur-Geer Chemin n°11 </desc>
<link href="https://chemins.be/roclengesurgeer/chemin/11"/><trkseg>
<trkpt lat="50.753509" lon="5.594151"><time>2026-05-08T04:47:26Z</time></trkpt>
<trkpt lat="50.754070" lon="5.592836"><time>2026-05-08T04:57:26Z</time></trkpt>
<trkpt lat="50.754233" lon="5.592442"><time>2026-05-08T05:07:26Z</time></trkpt>
</trkseg>
</trk>
<trk>
<name>lbgro12</name>
<cmt>d</cmt>
<desc>Roclenge-sur-Geer Chemin n°12 Rue Droit Thier</desc>
<link href="https://chemins.be/roclengesurgeer/chemin/12"/><trkseg>
<trkpt lat="50.760734" lon="5.593432"><time>2026-05-08T04:47:26Z</time></trkpt>
<trkpt lat="50.759002" lon="5.593911"><time>2026-05-08T04:57:26Z</time></trkpt>
</trkseg></trk>
<trk>
<name>lbgro12</name>
<cmt>s</cmt>
<desc>Roclenge-sur-Geer Chemin n°12 Rue Droit Thier</desc>
<link href="https://chemins.be/roclengesurgeer/chemin/12"/><trkseg>
<trkpt lat="50.759002" lon="5.593911"><time>2026-05-08T04:57:26Z</time></trkpt>
<trkpt lat="50.758654" lon="5.593718"><time>2026-05-08T05:07:26Z</time></trkpt>
</trkseg></trk>
<trk>
<name>lbgro12</name>
<cmt>r</cmt>
<desc>Roclenge-sur-Geer Chemin n°12 Rue Droit Thier</desc>
<link href="https://chemins.be/roclengesurgeer/chemin/12"/><trkseg>
<trkpt lat="50.758654" lon="5.593718"><time>2026-05-08T05:07:26Z</time></trkpt>
<trkpt lat="50.757969" lon="5.591276"><time>2026-05-08T05:17:26Z</time></trkpt>
</trkseg></trk>
<trk>
<name>lbgro12</name>
<cmt>v</cmt>
<desc>Roclenge-sur-Geer Chemin n°12 Rue Droit Thier</desc>
<link href="https://chemins.be/roclengesurgeer/chemin/12"/><trkseg>
<trkpt lat="50.757969" lon="5.591276"><time>2026-05-08T05:17:26Z</time></trkpt>
<trkpt lat="50.757880" lon="5.590381"><time>2026-05-08T05:27:26Z</time></trkpt>
<trkpt lat="50.757850" lon="5.589771"><time>2026-05-08T05:37:26Z</time></trkpt>
</trkseg>
</trk>
<trk>
<name>lbgro16</name>
<cmt>v</cmt>
<desc>Roclenge-sur-Geer Chemin n°16 </desc>
<link href="https://chemins.be/roclengesurgeer/chemin/16"/><trkseg>
<trkpt lat="50.752449" lon="5.599325"><time>2026-05-08T04:47:26Z</time></trkpt>
<trkpt lat="50.752377" lon="5.600595"><time>2026-05-08T04:57:26Z</time></trkpt>
<trkpt lat="50.752433" lon="5.601088"><time>2026-05-08T05:07:26Z</time></trkpt>
</trkseg>
</trk>
<trk>
<name>lbgro17</name>
<cmt>q</cmt>
<desc>Roclenge-sur-Geer Sentier n°17 Rue Frenay</desc>
<link href="https://chemins.be/roclengesurgeer/sentier/17"/><trkseg>
<trkpt lat="50.752439" lon="5.601030"><time>2026-05-08T04:47:26Z</time></trkpt>
<trkpt lat="50.752792" lon="5.601097"><time>2026-05-08T04:57:26Z</time></trkpt>
<trkpt lat="50.752752" lon="5.602732"><time>2026-05-08T05:07:26Z</time></trkpt>
</trkseg></trk>
<trk>
<name>lbgro17</name>
<cmt>s</cmt>
<desc>Roclenge-sur-Geer Sentier n°17 Rue Frenay</desc>
<link href="https://chemins.be/roclengesurgeer/sentier/17"/><trkseg>
<trkpt lat="50.752752" lon="5.602732"><time>2026-05-08T05:07:26Z</time></trkpt>
<trkpt lat="50.752725" lon="5.603274"><time>2026-05-08T05:17:26Z</time></trkpt>
<trkpt lat="50.752688" lon="5.603870"><time>2026-05-08T05:27:26Z</time></trkpt>
</trkseg></trk>
<trk>
<name>lbgro17</name>
<cmt>q</cmt>
<desc>Roclenge-sur-Geer Sentier n°17 Rue Frenay</desc>
<link href="https://chemins.be/roclengesurgeer/sentier/17"/><trkseg>
<trkpt lat="50.752688" lon="5.603870"><time>2026-05-08T05:27:26Z</time></trkpt>
<trkpt lat="50.752636" lon="5.604983"><time>2026-05-08T05:37:26Z</time></trkpt>
<trkpt lat="50.752487" lon="5.605155"><time>2026-05-08T05:47:26Z</time></trkpt>
<trkpt lat="50.752536" lon="5.605343"><time>2026-05-08T05:57:26Z</time></trkpt>
</trkseg></trk>
<trk>
<name>lbgro17</name>
<cmt>r</cmt>
<desc>Roclenge-sur-Geer Sentier n°17 Rue Frenay</desc>
<link href="https://chemins.be/roclengesurgeer/sentier/17"/><trkseg>
<trkpt lat="50.752536" lon="5.605343"><time>2026-05-08T05:57:26Z</time></trkpt>
<trkpt lat="50.752641" lon="5.605575"><time>2026-05-08T06:07:26Z</time></trkpt>
<trkpt lat="50.752872" lon="5.606814"><time>2026-05-08T06:17:26Z</time></trkpt>
</trkseg>
</trk>
<trk>
<name>lbgro20</name>
<cmt>q</cmt>
<desc>Roclenge-sur-Geer Sentier n°20 </desc>
<link href="https://chemins.be/roclengesurgeer/sentier/20"/><trkseg>
<trkpt lat="50.762333" lon="5.591151"><time>2026-05-08T04:47:26Z</time></trkpt>
<trkpt lat="50.762338" lon="5.592359"><time>2026-05-08T04:57:26Z</time></trkpt>
<trkpt lat="50.762727" lon="5.594441"><time>2026-05-08T05:07:26Z</time></trkpt>
</trkseg>
</trk>
<trk>
<name>lbgro22</name>
<cmt>q</cmt>
<desc>Roclenge-sur-Geer Sentier n°22 </desc>
<link href="https://chemins.be/roclengesurgeer/sentier/22"/><trkseg>
<trkpt lat="50.752581" lon="5.598435"><time>2026-05-08T04:47:26Z</time></trkpt>
<trkpt lat="50.752147" lon="5.596529"><time>2026-05-08T04:57:26Z</time></trkpt>
<trkpt lat="50.751997" lon="5.595617"><time>2026-05-08T05:07:26Z</time></trkpt>
</trkseg>
</trk>
<trk>
<name>lbgro23</name>
<cmt>v</cmt>
<desc>Roclenge-sur-Geer Sentier n°23 </desc>
<link href="https://chemins.be/roclengesurgeer/sentier/23"/><trkseg>
<trkpt lat="50.756699" lon="5.585418"><time>2026-05-08T04:47:26Z</time></trkpt>
<trkpt lat="50.756832" lon="5.585676"><time>2026-05-08T04:57:26Z</time></trkpt>
<trkpt lat="50.756819" lon="5.586016"><time>2026-05-08T05:07:26Z</time></trkpt>
<trkpt lat="50.756826" lon="5.586229"><time>2026-05-08T05:17:26Z</time></trkpt>
<trkpt lat="50.757287" lon="5.587743"><time>2026-05-08T05:27:26Z</time></trkpt>
<trkpt lat="50.757434" lon="5.588229"><time>2026-05-08T05:37:26Z</time></trkpt>
<trkpt lat="50.757485" lon="5.588571"><time>2026-05-08T05:47:26Z</time></trkpt>
<trkpt lat="50.757545" lon="5.588856"><time>2026-05-08T05:57:26Z</time></trkpt>
<trkpt lat="50.757623" lon="5.589085"><time>2026-05-08T06:07:26Z</time></trkpt>
<trkpt lat="50.757729" lon="5.589257"><time>2026-05-08T06:17:26Z</time></trkpt>
<trkpt lat="50.757853" lon="5.589459"><time>2026-05-08T06:27:26Z</time></trkpt>
<trkpt lat="50.757869" lon="5.589700"><time>2026-05-08T06:37:26Z</time></trkpt>
</trkseg>
</trk>
<trk>
<name>lbgro26</name>
<cmt>q</cmt>
<desc>Roclenge-sur-Geer Sentier n°26 </desc>
<link href="https://chemins.be/roclengesurgeer/sentier/26"/><trkseg>
<trkpt lat="50.751456" lon="5.599528"><time>2026-05-08T04:47:26Z</time></trkpt>
<trkpt lat="50.750813" lon="5.600064"><time>2026-05-08T04:57:26Z</time></trkpt>
<trkpt lat="50.749881" lon="5.600172"><time>2026-05-08T05:07:26Z</time></trkpt>
<trkpt lat="50.749654" lon="5.599886"><time>2026-05-08T05:17:26Z</time></trkpt>
</trkseg>
</trk>
<trk>
<name>lbgro3</name>
<cmt>r</cmt>
<desc>Roclenge-sur-Geer Chemin n°3 Rue de l'Ile / Rue Thier du Moulin / Sur les Coteaux</desc>
<link href="https://chemins.be/roclengesurgeer/chemin/3"/><trkseg>
<trkpt lat="50.754677" lon="5.586216"><time>2026-05-08T04:47:26Z</time></trkpt>
<trkpt lat="50.755065" lon="5.585770"><time>2026-05-08T04:57:26Z</time></trkpt>
<trkpt lat="50.755528" lon="5.585629"><time>2026-05-08T05:07:26Z</time></trkpt>
<trkpt lat="50.756085" lon="5.585671"><time>2026-05-08T05:17:26Z</time></trkpt>
<trkpt lat="50.756800" lon="5.585293"><time>2026-05-08T05:27:26Z</time></trkpt>
<trkpt lat="50.757980" lon="5.584204"><time>2026-05-08T05:37:26Z</time></trkpt>
<trkpt lat="50.761719" lon="5.582260"><time>2026-05-08T05:47:26Z</time></trkpt>
</trkseg></trk>
<trk>
<name>lbgro3</name>
<cmt>v</cmt>
<desc>Roclenge-sur-Geer Chemin n°3 Rue de l'Ile / Rue Thier du Moulin / Sur les Coteaux</desc>
<link href="https://chemins.be/roclengesurgeer/chemin/3"/><trkseg>
<trkpt lat="50.761719" lon="5.582260"><time>2026-05-08T05:47:26Z</time></trkpt>
<trkpt lat="50.763057" lon="5.582278"><time>2026-05-08T05:57:26Z</time></trkpt>
<trkpt lat="50.763600" lon="5.582182"><time>2026-05-08T06:07:26Z</time></trkpt>
<trkpt lat="50.765755" lon="5.580887"><time>2026-05-08T06:17:26Z</time></trkpt>
</trkseg></trk>
<trk>
<name>lbgro3</name>
<cmt>q</cmt>
<desc>Roclenge-sur-Geer Chemin n°3 Rue de l'Ile / Rue Thier du Moulin / Sur les Coteaux</desc>
<link href="https://chemins.be/roclengesurgeer/chemin/3"/><trkseg>
<trkpt lat="50.765755" lon="5.580887"><time>2026-05-08T06:17:26Z</time></trkpt>
<trkpt lat="50.765977" lon="5.580069"><time>2026-05-08T06:27:26Z</time></trkpt>
</trkseg></trk>
<trk>
<name>lbgro3</name>
<cmt>d</cmt>
<desc>Roclenge-sur-Geer Chemin n°3 Rue de l'Ile / Rue Thier du Moulin / Sur les Coteaux</desc>
<link href="https://chemins.be/roclengesurgeer/chemin/3"/><trkseg>
<trkpt lat="50.765977" lon="5.580069"><time>2026-05-08T06:27:26Z</time></trkpt>
<trkpt lat="50.766144" lon="5.579456"><time>2026-05-08T06:37:26Z</time></trkpt>
<trkpt lat="50.766787" lon="5.579021"><time>2026-05-08T06:47:26Z</time></trkpt>
<trkpt lat="50.767013" lon="5.578956"><time>2026-05-08T06:57:26Z</time></trkpt>
<trkpt lat="50.767409" lon="5.579010"><time>2026-05-08T07:07:26Z</time></trkpt>
<trkpt lat="50.767771" lon="5.578803"><time>2026-05-08T07:17:26Z</time></trkpt>
</trkseg>
</trk>
<trk>
<name>lbgro5</name>
<cmt>v</cmt>
<desc>Roclenge-sur-Geer Chemin n°5 Thier au Pèquet</desc>
<link href="https://chemins.be/roclengesurgeer/chemin/5"/><trkseg>
<trkpt lat="50.745493" lon="5.603977"><time>2026-05-08T04:47:26Z</time></trkpt>
<trkpt lat="50.749818" lon="5.608946"><time>2026-05-08T04:57:26Z</time></trkpt>
</trkseg>
</trk>
<trk>
<name>lbgro7</name>
<cmt>d</cmt>
<desc>Roclenge-sur-Geer Chemin n°7 </desc>
<link href="https://chemins.be/roclengesurgeer/chemin/7"/><trkseg>
<trkpt lat="50.763799" lon="5.578077"><time>2026-05-08T04:47:26Z</time></trkpt>
<trkpt lat="50.764862" lon="5.579300"><time>2026-05-08T04:57:26Z</time></trkpt>
<trkpt lat="50.765821" lon="5.580856"><time>2026-05-08T05:07:26Z</time></trkpt>
</trkseg></trk>
<trk>
<name>lbgro7</name>
<cmt>v</cmt>
<desc>Roclenge-sur-Geer Chemin n°7 </desc>
<link href="https://chemins.be/roclengesurgeer/chemin/7"/><trkseg>
<trkpt lat="50.765821" lon="5.580856"><time>2026-05-08T05:07:26Z</time></trkpt>
<trkpt lat="50.767503" lon="5.582367"><time>2026-05-08T05:17:26Z</time></trkpt>
<trkpt lat="50.769141" lon="5.583025"><time>2026-05-08T05:27:26Z</time></trkpt>
<trkpt lat="50.770018" lon="5.584255"><time>2026-05-08T05:37:26Z</time></trkpt>
<trkpt lat="50.771167" lon="5.585600"><time>2026-05-08T05:47:26Z</time></trkpt>
</trkseg>
</trk>
<trk>
<name>lbgro7bis</name>
<cmt>v</cmt>
<desc>Roclenge-sur-Geer Chemin n°7bis </desc>
<link href="https://chemins.be/roclengesurgeer/chemin/7bis"/><trkseg>
<trkpt lat="50.769225" lon="5.583004"><time>2026-05-08T04:47:26Z</time></trkpt>
<trkpt lat="50.771188" lon="5.584091"><time>2026-05-08T04:57:26Z</time></trkpt>
</trkseg>
</trk>
<trk>
<name>lbgro8</name>
<cmt>v</cmt>
<desc>Roclenge-sur-Geer Chemin n°8 Rue Droit Thier</desc>
<link href="https://chemins.be/roclengesurgeer/chemin/8"/><trkseg>
<trkpt lat="50.763377" lon="5.583039"><time>2026-05-08T04:47:26Z</time></trkpt>
<trkpt lat="50.763316" lon="5.584625"><time>2026-05-08T04:57:26Z</time></trkpt>
<trkpt lat="50.763196" lon="5.586663"><time>2026-05-08T05:07:26Z</time></trkpt>
<trkpt lat="50.763214" lon="5.589215"><time>2026-05-08T05:17:26Z</time></trkpt>
<trkpt lat="50.762989" lon="5.590088"><time>2026-05-08T05:27:26Z</time></trkpt>
<trkpt lat="50.762312" lon="5.591149"><time>2026-05-08T05:37:26Z</time></trkpt>
<trkpt lat="50.761071" lon="5.592973"><time>2026-05-08T05:47:26Z</time></trkpt>
<trkpt lat="50.760538" lon="5.594107"><time>2026-05-08T05:57:26Z</time></trkpt>
<trkpt lat="50.759952" lon="5.595991"><time>2026-05-08T06:07:26Z</time></trkpt>
<trkpt lat="50.759716" lon="5.597927"><time>2026-05-08T06:17:26Z</time></trkpt>
</trkseg>
</trk>
<trk>
<name>lbgroi2</name>
<cmt>v</cmt>
<desc>Roclenge-sur-Geer Sentier n°i2 </desc>
<link href="https://chemins.be/roclengesurgeer/sentier/i2"/><trkseg>
<trkpt lat="50.756423" lon="5.597274"><time>2026-05-08T04:47:26Z</time></trkpt>
<trkpt lat="50.756379" lon="5.597202"><time>2026-05-08T04:57:26Z</time></trkpt>
<trkpt lat="50.756002" lon="5.597107"><time>2026-05-08T05:07:26Z</time></trkpt>
<trkpt lat="50.755960" lon="5.595987"><time>2026-05-08T05:17:26Z</time></trkpt>
</trkseg>
</trk>
<trk>
<name>lbgroi3</name>
<cmt>v</cmt>
<desc>Roclenge-sur-Geer Chemin n°i3 </desc>
<link href="https://chemins.be/roclengesurgeer/chemin/i3"/><trkseg>
<trkpt lat="50.751481" lon="5.599489"><time>2026-05-08T04:47:26Z</time></trkpt>
<trkpt lat="50.751764" lon="5.599886"><time>2026-05-08T04:57:26Z</time></trkpt>
<trkpt lat="50.753292" lon="5.606729"><time>2026-05-08T05:07:26Z</time></trkpt>
</trkseg>
</trk>
<trk>
<name>lbgroi4</name>
<cmt>v</cmt>
<desc>Roclenge-sur-Geer Sentier n°i4 </desc>
<link href="https://chemins.be/roclengesurgeer/sentier/i4"/><trkseg>
<trkpt lat="50.758591" lon="5.597388"><time>2026-05-08T04:47:26Z</time></trkpt>
<trkpt lat="50.758296" lon="5.597635"><time>2026-05-08T04:57:26Z</time></trkpt>
<trkpt lat="50.758093" lon="5.597700"><time>2026-05-08T05:07:26Z</time></trkpt>
<trkpt lat="50.758018" lon="5.597789"><time>2026-05-08T05:17:26Z</time></trkpt>
<trkpt lat="50.757883" lon="5.597642"><time>2026-05-08T05:27:26Z</time></trkpt>
</trkseg>
</trk>
</gpx>